You are listening to:
LSZH Tower - Zurich, Switzerland

LSZH 251820Z 03006KT 9999 FEW055 17/07 Q1031 NOSIG

If stream doesn't start automatically press the play button
If stream stops then reload player then press play